Time;durP1;ratioP1;P1;durP2;ratioP2;P2;SDS_P1;SDS_P2;PMS_P1;PMS_P2;Temp;Humidity;BMP_temperature;BMP_pressure;BME280_temperature;BME280_humidity;BME280_pressure;Samples;Min_cycle;Max_cycle;Signal;HPM_P1;HPM_P2
2022/01/12 00:03:54;;;;;;;53.30;24.13;;;;;;;-4.44;88.69;98544.88;10371291;28;20132;-59
2022/01/12 00:08:53;;;;;;;36.63;15.55;;;;;;;-4.48;88.99;98558.97;10373012;28;20025;-59
2022/01/12 00:13:53;;;;;;;47.15;20.92;;;;;;;-4.48;89.15;98561.50;10401082;28;20029;-59
2022/01/12 00:18:51;;;;;;;48.13;20.13;;;;;;;-4.45;88.70;98576.03;10413428;28;20056;-58
2022/01/12 00:23:50;;;;;;;40.85;19.70;;;;;;;-4.64;88.51;98548.53;10406288;28;20035;-59
2022/01/12 00:34:08;;;;;;;50.65;18.50;;;;;;;-4.49;88.54;98581.66;10410106;28;20068;-59
2022/01/12 00:39:08;;;;;;;39.25;18.20;;;;;;;-4.66;88.66;98573.75;10405558;28;20049;-59
2022/01/12 00:44:10;;;;;;;45.22;19.92;;;;;;;-4.42;88.95;98583.84;10405076;28;20060;-59
2022/01/12 00:49:09;;;;;;;48.55;20.02;;;;;;;-4.67;88.36;98561.88;10417915;28;20056;-59
2022/01/12 00:54:08;;;;;;;59.60;22.88;;;;;;;-4.57;88.91;98572.66;10414046;28;20059;-59
2022/01/12 00:59:08;;;;;;;58.40;22.77;;;;;;;-4.58;88.27;98578.47;10418225;28;20060;-59
2022/01/12 01:04:07;;;;;;;56.67;23.50;;;;;;;-4.52;88.81;98581.44;10417506;28;20055;-59
2022/01/12 01:09:06;;;;;;;;;;;;;;;-4.58;88.38;98579.38;10414707;28;20060;-59
2022/01/12 01:14:37;;;;;;;45.58;18.85;;;;;;;-4.61;88.93;98587.63;10417575;28;19912;-58
2022/01/12 01:30:11;;;;;;;53.85;21.42;;;;;;;-4.81;89.06;98549.88;10419756;28;20523;-59
2022/01/12 01:35:10;;;;;;;;;;;;;;;-4.47;88.12;98585.19;10420117;28;20075;-59
2022/01/12 01:40:11;;;;;;;37.63;15.15;;;;;;;-4.69;89.31;98587.84;10414738;28;20387;-58
2022/01/12 01:55:45;;;;;;;43.50;17.48;;;;;;;-4.74;88.88;98592.59;10414731;28;20056;-59
2022/01/12 02:00:45;;;;;;;40.17;15.00;;;;;;;-4.91;89.87;98588.84;10417735;28;20037;-59
2022/01/12 02:05:43;;;;;;;40.28;17.25;;;;;;;-4.94;89.35;98590.25;10418237;28;20060;-59
2022/01/12 02:10:42;;;;;;;36.15;15.75;;;;;;;-4.87;89.14;98592.47;10385879;28;20044;-58
2022/01/12 02:15:45;;;;;;;49.95;20.02;;;;;;;-4.90;89.98;98607.44;10376369;28;20048;-59
2022/01/12 02:36:54;;;;;;;50.15;19.95;;;;;;;-4.96;89.21;98615.44;10415711;28;20064;-58
2022/01/12 02:41:53;;;;;;;42.35;16.88;;;;;;;-4.90;88.58;98613.38;10415463;28;20080;-58
2022/01/12 02:57:16;;;;;;;47.88;21.23;;;;;;;-4.97;89.85;98625.47;10413440;28;20070;-59
2022/01/12 03:07:16;;;;;;;43.30;14.57;;;;;;;-5.03;88.39;98647.03;10414857;28;20062;-59
2022/01/12 03:12:16;;;;;;;44.80;17.55;;;;;;;-4.95;88.19;98645.06;10413646;28;20491;-59
2022/01/12 03:17:16;;;;;;;47.40;18.85;;;;;;;-5.09;88.22;98641.50;10412540;28;20072;-60
2022/01/12 03:22:15;;;;;;;;;;;;;;;-4.98;88.92;98644.84;10413984;28;20055;-59
2022/01/12 03:27:15;;;;;;;42.70;16.50;;;;;;;-5.05;89.13;98656.16;10409657;28;19963;-59
2022/01/12 03:32:17;;;;;;;44.70;18.70;;;;;;;-5.27;88.42;98613.19;10412307;28;20087;-59
2022/01/12 04:12:10;;;;;;;52.08;22.45;;;;;;;-4.96;88.53;98677.84;10372009;28;20480;-59
2022/01/12 04:17:09;;;;;;;47.10;17.15;;;;;;;-5.01;87.58;98682.56;10372892;28;20061;-60
2022/01/12 04:23:16;;;;;;;61.67;25.30;;;;;;;-4.92;88.18;98695.03;10377882;28;20065;-59
2022/01/12 04:27:28;;;;;;;53.40;26.90;;;;;;;-4.84;87.09;98692.31;10387669;28;20070;-59
2022/01/12 04:32:28;;;;;;;53.35;23.42;;;;;;;-4.91;87.42;98699.31;10421342;28;20051;-59
2022/01/12 04:37:27;;;;;;;57.78;25.45;;;;;;;-4.70;87.83;98703.47;10421374;28;20060;-59
2022/01/12 04:42:27;;;;;;;50.80;23.83;;;;;;;-4.57;87.65;98706.88;10421236;28;20075;-59
2022/01/12 04:47:47;;;;;;;55.80;24.35;;;;;;;-4.63;86.74;98707.28;10413089;28;20479;-59
2022/01/12 04:52:46;;;;;;;56.03;25.77;;;;;;;-4.56;86.52;98714.56;10379557;28;20061;-59
2022/01/12 04:57:45;;;;;;;50.60;24.02;;;;;;;-4.52;86.24;98726.69;10380939;28;20051;-59
2022/01/12 05:13:19;;;;;;;46.05;20.65;;;;;;;-4.77;86.07;98740.84;10420220;28;20075;-59
2022/01/12 05:18:18;;;;;;;52.08;25.38;;;;;;;-4.66;86.72;98745.94;10418242;28;20059;-59
2022/01/12 05:23:17;;;;;;;44.25;18.58;;;;;;;-4.71;85.74;98748.91;10419544;28;20068;-59
2022/01/12 05:28:17;;;;;;;57.30;26.00;;;;;;;-4.67;86.56;98766.09;10418881;28;20021;-59
2022/01/12 05:33:17;;;;;;;46.60;23.02;;;;;;;-4.74;85.74;98767.28;10414174;28;20086;-59
2022/01/12 05:38:16;;;;;;;55.72;25.27;;;;;;;-4.99;86.52;98743.44;10418906;28;20063;-59
2022/01/12 05:43:20;;;;;;;48.95;22.90;;;;;;;-4.83;87.19;98777.59;10419152;28;20064;-59
2022/01/12 05:53:19;;;;;;;47.85;21.08;;;;;;;-5.12;87.63;98780.47;10414861;28;20068;-59
2022/01/12 05:58:18;;;;;;;49.80;23.52;;;;;;;-5.04;88.08;98787.00;10397296;28;20040;-59
2022/01/12 06:03:17;;;;;;;55.35;26.15;;;;;;;-4.84;87.60;98802.78;10423828;28;20052;-59
2022/01/12 06:08:16;;;;;;;66.22;28.50;;;;;;;-4.93;86.88;98782.75;10417049;28;20033;-59
2022/01/12 06:13:15;;;;;;;;;;;;;;;-4.65;86.67;98810.16;10416691;28;20068;-59
2022/01/12 06:18:14;;;;;;;52.63;24.38;;;;;;;-4.62;86.94;98816.31;10391751;28;19912;-59
2022/01/12 06:23:13;;;;;;;59.28;26.90;;;;;;;-4.57;86.39;98829.34;10416750;28;20581;-59
2022/01/12 06:33:20;;;;;;;86.90;40.30;;;;;;;-4.70;86.45;98850.34;10416562;28;19967;-59
2022/01/12 06:38:19;;;;;;;64.30;31.63;;;;;;;-4.66;86.82;98856.50;10414903;28;20052;-59
2022/01/12 06:43:18;;;;;;;53.35;26.13;;;;;;;-4.54;86.74;98851.47;10410272;28;20102;-59
2022/01/12 06:48:17;;;;;;;63.08;30.85;;;;;;;-4.52;85.69;98860.06;10412569;28;20033;-59
2022/01/12 06:53:16;;;;;;;50.53;23.63;;;;;;;-4.66;86.36;98844.72;10406402;28;20024;-59
2022/01/12 06:58:15;;;;;;;65.95;31.33;;;;;;;-4.44;86.23;98869.16;10399582;28;20056;-59
2022/01/12 07:03:14;;;;;;;44.17;20.80;;;;;;;-4.44;85.28;98879.28;10413919;28;20602;-59
2022/01/12 07:08:13;;;;;;;50.95;24.08;;;;;;;-4.37;85.69;98880.59;10385911;28;20036;-59
2022/01/12 07:13:13;;;;;;;;;;;;;;;-4.47;85.96;98890.03;10413196;28;20064;-59
2022/01/12 07:18:12;;;;;;;71.07;32.03;;;;;;;-4.62;85.75;98899.91;10407789;28;20390;-59
2022/01/12 07:23:11;;;;;;;54.63;27.63;;;;;;;-4.53;85.88;98888.72;10385758;28;20064;-59
2022/01/12 07:28:10;;;;;;;52.67;26.77;;;;;;;-4.42;85.42;98900.53;10374124;28;20033;-59
2022/01/12 07:33:10;;;;;;;50.63;25.17;;;;;;;-4.51;85.08;98883.00;10374476;28;20119;-59
2022/01/12 07:38:10;;;;;;;56.70;26.38;;;;;;;-4.44;85.03;98905.50;10375690;28;20060;-59
2022/01/12 07:43:09;;;;;;;;;;;;;;;-4.37;84.73;98905.94;10404004;28;20068;-60
2022/01/12 07:48:07;;;;;;;44.33;22.83;;;;;;;-4.39;85.31;98918.50;10400395;28;19917;-59
2022/01/12 07:53:06;;;;;;;57.28;28.30;;;;;;;-4.65;84.97;98922.47;10414909;28;20036;-59
2022/01/12 07:58:05;;;;;;;45.15;19.73;;;;;;;-4.45;84.80;98923.09;10411740;28;20056;-59
2022/01/12 08:03:04;;;;;;;49.22;22.75;;;;;;;-4.37;84.70;98942.31;10412683;28;20110;-59
2022/01/12 08:08:04;;;;;;;55.05;23.70;;;;;;;-4.24;84.35;98941.59;10414615;28;20516;-59
2022/01/12 08:13:03;;;;;;;49.97;22.88;;;;;;;-4.20;83.91;98941.94;10410686;28;20068;-59
2022/01/12 08:18:02;;;;;;;36.72;17.25;;;;;;;-4.67;83.90;98931.59;10408365;28;20036;-59
2022/01/12 08:23:01;;;;;;;33.03;15.57;;;;;;;-4.75;84.25;98947.81;10409835;28;20081;-59
2022/01/12 08:28:00;;;;;;;65.28;30.67;;;;;;;-4.62;84.18;98950.56;10413150;28;20040;-59
2022/01/12 08:32:59;;;;;;;57.47;29.10;;;;;;;-4.42;84.30;98934.38;10414020;28;20135;-59
2022/01/12 08:37:58;;;;;;;48.58;24.38;;;;;;;-4.12;83.87;98954.31;10402483;28;20456;-59
2022/01/12 08:42:57;;;;;;;53.88;26.70;;;;;;;-3.98;83.56;98954.56;10391953;28;20810;-59
2022/01/12 08:47:56;;;;;;;31.38;15.73;;;;;;;-4.23;82.36;98931.56;10377524;28;20073;-60
2022/01/12 08:52:55;;;;;;;48.83;25.15;;;;;;;-3.77;83.11;98960.34;10411621;28;20071;-59
2022/01/12 08:57:58;;;;;;;38.08;19.52;;;;;;;-3.79;81.93;98974.59;10414150;28;20036;-59
2022/01/12 09:02:57;;;;;;;44.85;20.95;;;;;;;-3.85;82.13;98965.66;10412575;28;20060;-59
2022/01/12 09:07:56;;;;;;;42.60;20.77;;;;;;;-3.76;82.29;98964.66;10417104;28;20032;-59
2022/01/12 09:12:55;;;;;;;39.00;19.92;;;;;;;-3.58;81.95;98959.19;10420307;28;20138;-59
2022/01/12 09:17:56;;;;;;;42.63;21.55;;;;;;;-3.28;82.11;98954.59;10393554;28;20036;-59
2022/01/12 09:22:55;;;;;;;47.22;19.73;;;;;;;-3.61;81.02;98943.75;10392903;28;20064;-59
2022/01/12 09:27:56;;;;;;;47.38;23.55;;;;;;;-3.27;82.05;98949.63;10396680;28;20072;-59
2022/01/12 09:32:55;;;;;;;46.50;23.88;;;;;;;-2.91;81.09;98946.28;10396477;28;20483;-59
2022/01/12 09:37:55;;;;;;;81.32;49.40;;;;;;;-2.56;80.69;98945.31;10418577;28;20056;-60
2022/01/12 09:42:55;;;;;;;36.70;19.35;;;;;;;-2.48;79.93;98935.69;10412170;28;20483;-60
2022/01/12 09:47:54;;;;;;;39.50;21.42;;;;;;;-2.21;78.81;98941.78;10410169;28;20055;-60
2022/01/12 09:52:53;;;;;;;36.97;19.42;;;;;;;-2.08;80.15;98946.94;10406019;28;20020;-60
2022/01/12 09:57:52;;;;;;;32.55;17.40;;;;;;;-1.88;79.19;98934.66;10409826;28;20032;-60
2022/01/12 10:02:52;;;;;;;35.80;16.73;;;;;;;-1.85;78.25;98924.69;10409085;28;20044;-60
2022/01/12 10:07:51;;;;;;;36.70;18.35;;;;;;;-1.62;80.69;98927.88;10417833;28;21030;-61
2022/01/12 10:12:54;;;;;;;37.80;20.08;;;;;;;-1.58;78.74;98920.53;10417849;28;20447;-61
2022/01/12 10:18:00;;;;;;;35.63;18.20;;;;;;;-1.32;79.03;98927.31;10416096;28;20500;-61
2022/01/12 10:23:07;;;;;;;35.08;19.23;;;;;;;-1.35;79.93;98911.84;10415228;28;20064;-61
2022/01/12 10:28:23;;;;;;;48.08;24.75;;;;;;;-1.28;79.32;98901.25;10407098;28;20064;-62
2022/01/12 10:33:30;;;;;;;28.30;15.88;;;;;;;-1.16;79.94;98919.00;10414777;28;20090;-61
2022/01/12 10:38:29;;;;;;;30.17;15.48;;;;;;;-1.00;80.29;98928.50;10414684;28;20060;-62
2022/01/12 10:43:36;;;;;;;29.90;16.98;;;;;;;-0.94;78.99;98923.75;10416072;28;20052;-62
2022/01/12 10:48:46;;;;;;;28.08;15.50;;;;;;;-0.96;79.01;98921.91;10416203;28;20044;-62
2022/01/12 10:53:46;;;;;;;28.35;14.60;;;;;;;-0.83;79.10;98924.44;10398503;28;20060;-62
2022/01/12 10:58:47;;;;;;;27.05;14.57;;;;;;;-0.90;75.17;98924.84;10399001;28;20055;-62
2022/01/12 11:03:48;;;;;;;30.75;16.10;;;;;;;-0.92;76.79;98917.09;10404753;28;20059;-62
2022/01/12 11:08:49;;;;;;;30.77;16.88;;;;;;;-0.93;78.44;98915.34;10391537;28;20060;-62
2022/01/12 11:13:51;;;;;;;29.25;15.23;;;;;;;-0.87;77.60;98915.72;10393904;28;20071;-62
2022/01/12 11:18:52;;;;;;;35.15;19.45;;;;;;;-0.94;76.98;98922.88;10394873;28;20072;-62
2022/01/12 11:23:56;;;;;;;34.33;18.52;;;;;;;-0.96;75.94;98921.91;10426347;28;20459;-62
2022/01/12 11:28:55;;;;;;;32.88;19.00;;;;;;;-1.07;77.27;98895.75;10412196;28;20503;-62
2022/01/12 11:33:55;;;;;;;30.80;15.93;;;;;;;-0.93;77.82;98901.72;10401598;28;20080;-62
2022/01/12 11:39:09;;;;;;;34.38;18.05;;;;;;;-0.87;75.66;98912.28;10393527;28;20056;-61
2022/01/12 11:44:19;;;;;;;29.27;17.05;;;;;;;-0.86;76.96;98911.50;10412655;28;20094;-62
2022/01/12 11:49:26;;;;;;;27.83;14.85;;;;;;;-0.81;75.47;98918.66;10370624;28;20064;-62
2022/01/12 11:54:36;;;;;;;30.73;18.35;;;;;;;-0.78;77.25;98929.84;10386854;28;20621;-62
2022/01/12 11:59:55;;;;;;;;;;;;;;;-0.77;75.78;98923.94;10400037;28;20048;-62
2022/01/12 12:04:56;;;;;;;24.67;14.48;;;;;;;-0.86;75.49;98931.88;10409388;28;19983;-62
2022/01/12 12:09:58;;;;;;;22.58;12.80;;;;;;;-1.07;75.60;98913.56;10414715;28;20059;-62
2022/01/12 12:14:59;;;;;;;21.67;12.75;;;;;;;-0.98;75.26;98932.00;10412375;28;20067;-63
2022/01/12 12:20:00;;;;;;;24.10;14.65;;;;;;;-0.96;76.16;98937.19;10402878;28;20144;-62
2022/01/12 12:25:04;;;;;;;30.42;16.83;;;;;;;-0.82;76.39;98933.84;10398080;28;20067;-63
2022/01/12 12:30:06;;;;;;;36.50;21.38;;;;;;;-0.88;77.17;98934.34;10412048;28;20091;-63
2022/01/12 12:35:09;;;;;;;48.25;27.10;;;;;;;-0.83;76.27;98927.88;10410977;28;20060;-63
2022/01/12 12:40:20;;;;;;;60.60;37.47;;;;;;;-0.90;74.78;98933.38;10410804;28;20495;-63
2022/01/12 12:45:19;;;;;;;39.08;24.30;;;;;;;-0.93;75.90;98939.94;10418021;28;20063;-63
2022/01/12 12:50:18;;;;;;;47.72;27.38;;;;;;;-0.91;77.30;98934.13;10418313;28;20028;-63
2022/01/12 12:55:17;;;;;;;40.33;23.02;;;;;;;-0.85;76.80;98938.75;10396774;28;20048;-63
2022/01/12 13:00:22;;;;;;;36.95;21.77;;;;;;;-1.07;77.87;98917.03;10414380;28;20029;-63
2022/01/12 13:05:30;;;;;;;37.17;21.38;;;;;;;-0.90;77.53;98948.66;10415258;28;20064;-63
2022/01/12 13:10:31;;;;;;;42.67;25.30;;;;;;;-0.97;77.01;98950.72;10402164;28;20498;-64
2022/01/12 13:15:41;;;;;;;46.42;25.88;;;;;;;-1.06;77.87;98954.44;10387533;28;20152;-64
2022/01/12 13:26:05;;;;;;;36.13;18.63;;;;;;;-1.15;77.83;98947.88;10417492;28;20475;-64
2022/01/12 13:31:08;;;;;;;42.95;25.38;;;;;;;-1.23;77.40;98955.03;10413589;28;20064;-65
2022/01/12 13:36:14;;;;;;;35.38;20.48;;;;;;;-1.22;77.25;98965.31;10416853;28;20060;-65
2022/01/12 13:41:16;;;;;;;47.15;27.80;;;;;;;-1.46;78.13;98951.00;10414166;28;20063;-64
2022/01/12 13:46:17;;;;;;;43.40;25.73;;;;;;;-1.58;76.57;98953.63;10411575;28;20099;-64
2022/01/12 13:51:25;;;;;;;35.20;21.17;;;;;;;-1.82;77.00;98985.97;10380064;28;20053;-64
2022/01/12 13:56:34;;;;;;;48.95;30.35;;;;;;;-1.81;77.24;98987.72;10399737;28;20073;-64
2022/01/12 14:01:36;;;;;;;48.73;32.10;;;;;;;-1.76;78.42;98990.56;10374734;28;20052;-64
2022/01/12 14:06:42;;;;;;;42.70;23.23;;;;;;;-1.78;79.07;98993.00;10377307;28;20064;-65
2022/01/12 14:11:41;;;;;;;54.95;32.75;;;;;;;-1.67;79.55;98997.16;10414940;28;20063;-64
2022/01/12 14:16:40;;;;;;;38.88;23.02;;;;;;;-1.91;77.64;98976.03;10415105;28;20024;-64
2022/01/12 14:21:41;;;;;;;36.92;20.98;;;;;;;-2.08;77.89;98967.28;10414694;28;20452;-64
2022/01/12 14:26:41;;;;;;;47.38;28.10;;;;;;;-2.00;78.67;98989.81;10414268;28;20514;-64
2022/01/12 14:31:41;;;;;;;51.70;31.00;;;;;;;-1.97;79.23;98990.00;10424885;28;20068;-64
2022/01/12 14:36:40;;;;;;;47.70;27.33;;;;;;;-1.90;80.79;98992.19;10412077;28;20071;-64
2022/01/12 14:41:39;;;;;;;54.85;28.55;;;;;;;-1.87;79.55;99000.00;10413328;28;20028;-64
2022/01/12 14:46:37;;;;;;;44.35;22.65;;;;;;;-1.97;79.69;99000.19;10413637;28;20033;-63
2022/01/12 14:51:36;;;;;;;34.72;18.80;;;;;;;-2.13;78.80;98994.03;10396580;28;20020;-63
2022/01/12 14:56:35;;;;;;;41.47;22.65;;;;;;;-2.08;80.71;98992.72;10376098;28;20036;-62
2022/01/12 15:01:34;;;;;;;29.80;15.70;;;;;;;-2.04;81.43;99008.16;10399321;28;20472;-62
2022/01/12 15:06:33;;;;;;;37.63;20.45;;;;;;;-2.01;81.11;99004.16;10386331;28;20057;-62
2022/01/12 15:11:39;;;;;;;43.47;22.30;;;;;;;-1.94;81.11;99008.88;10405450;28;20047;-61
2022/01/12 15:16:38;;;;;;;50.20;32.42;;;;;;;-2.07;81.30;99008.84;10412296;28;20090;-62
2022/01/12 15:21:37;;;;;;;39.85;21.77;;;;;;;-2.14;81.11;99025.34;10410213;28;20119;-62
2022/01/12 15:26:36;;;;;;;40.65;22.10;;;;;;;-2.12;82.13;99012.75;10412111;28;20032;-62
2022/01/12 15:31:35;;;;;;;45.63;22.80;;;;;;;-2.04;82.24;99028.53;10410461;28;20041;-62
2022/01/12 15:36:34;;;;;;;62.92;33.58;;;;;;;-2.04;83.45;99029.41;10411651;28;20115;-62
2022/01/12 15:41:33;;;;;;;83.30;48.90;;;;;;;-2.02;83.18;99042.22;10411444;28;20029;-63
2022/01/12 15:46:32;;;;;;;;;;;;;;;-2.15;82.96;99031.22;10411060;28;20067;-63
2022/01/12 15:51:31;;;;;;;58.70;31.50;;;;;;;-2.16;82.04;99042.16;10408005;28;19922;-63
2022/01/12 15:56:30;;;;;;;;;;;;;;;-2.20;82.66;99036.75;10404445;28;20063;-64
2022/01/12 16:01:29;;;;;;;73.90;38.33;;;;;;;-2.19;83.69;99041.94;10405116;28;19916;-64
2022/01/12 16:06:28;;;;;;;43.92;25.05;;;;;;;-2.24;82.34;99043.28;10410640;28;20067;-64
2022/01/12 16:11:28;;;;;;;39.58;23.15;;;;;;;-2.32;82.68;99037.66;10411108;28;20088;-64
2022/01/12 16:16:29;;;;;;;37.10;17.67;;;;;;;-2.27;83.26;99063.41;10413546;28;20460;-64
2022/01/12 16:21:29;;;;;;;38.88;23.27;;;;;;;-2.24;82.83;99061.09;10390208;28;20068;-65
2022/01/12 16:26:28;;;;;;;82.13;50.55;;;;;;;-2.30;82.95;99061.53;10418692;28;20059;-65
2022/01/12 16:31:28;;;;;;;47.40;33.22;;;;;;;-2.25;82.34;99072.00;10404727;28;20045;-65
2022/01/12 16:36:32;;;;;;;38.70;23.48;;;;;;;-2.29;83.56;99075.09;10408310;28;20063;-65
2022/01/12 16:41:31;;;;;;;33.30;20.23;;;;;;;-2.28;83.57;99077.78;10412556;28;20052;-64
2022/01/12 16:46:30;;;;;;;33.10;18.90;;;;;;;-2.23;83.70;99087.38;10412918;28;20133;-64
2022/01/12 16:51:29;;;;;;;31.48;17.45;;;;;;;-2.28;83.97;99074.34;10414184;28;20468;-64
2022/01/12 16:56:29;;;;;;;34.63;21.33;;;;;;;-2.20;83.41;99082.50;10406751;28;20068;-64
2022/01/12 17:01:27;;;;;;;;;;;;;;;-2.31;83.03;99071.59;10417825;28;20060;-64
2022/01/12 17:06:27;;;;;;;32.53;19.15;;;;;;;-2.39;84.46;99075.25;10415137;28;19962;-64
2022/01/12 17:11:25;;;;;;;31.77;21.10;;;;;;;-2.42;84.37;99063.22;10416842;28;20063;-64
2022/01/12 17:16:31;;;;;;;29.52;17.75;;;;;;;-2.31;84.48;99069.06;10415453;28;20029;-64
2022/01/12 17:21:30;;;;;;;33.88;19.73;;;;;;;-2.43;83.28;99088.50;10416627;28;20056;-64
2022/01/12 17:26:42;;;;;;;34.72;19.10;;;;;;;-2.57;83.73;99082.44;10407563;28;20059;-64
2022/01/12 17:31:42;;;;;;;50.05;26.73;;;;;;;-2.59;83.45;99091.59;10411118;28;20144;-64
2022/01/12 17:37:06;;;;;;;55.22;31.48;;;;;;;-2.50;83.99;99102.44;10408617;28;20149;-64
2022/01/12 17:42:10;;;;;;;50.30;29.65;;;;;;;-2.39;84.44;99103.22;10410437;28;20402;-63
2022/01/12 17:47:13;;;;;;;80.88;45.33;;;;;;;-2.55;83.45;99089.38;10416181;28;20457;-64
2022/01/12 17:52:12;;;;;;;68.05;38.70;;;;;;;-2.57;83.33;99125.63;10415639;28;20530;-64
2022/01/12 17:57:12;;;;;;;62.53;38.63;;;;;;;-2.57;83.83;99136.72;10378848;28;20551;-64
2022/01/12 18:02:11;;;;;;;64.65;38.63;;;;;;;-2.52;83.25;99134.50;10409466;28;20491;-63
2022/01/12 18:07:10;;;;;;;55.75;30.95;;;;;;;-2.45;83.84;99145.97;10409669;28;20495;-63
2022/01/12 18:12:11;;;;;;;;;;;;;;;-2.40;84.22;99124.34;10399928;28;20548;-64
2022/01/12 18:17:12;;;;;;;44.30;24.42;;;;;;;-2.53;84.96;99105.63;10413011;28;19963;-63
2022/01/12 18:22:14;;;;;;;38.08;22.88;;;;;;;-2.27;85.39;99142.22;10407884;28;20064;-63
2022/01/12 18:27:14;;;;;;;79.85;43.10;;;;;;;-2.26;84.74;99141.44;10411937;28;20491;-63
2022/01/12 18:32:18;;;;;;;75.05;41.10;;;;;;;-2.40;85.19;99122.66;10411695;28;20127;-63
2022/01/12 18:37:18;;;;;;;73.13;42.75;;;;;;;-2.28;84.50;99150.63;10412106;28;20068;-63
2022/01/12 18:42:17;;;;;;;56.30;31.23;;;;;;;-2.74;82.98;99163.41;10408758;28;20055;-63
2022/01/12 18:47:16;;;;;;;;;;;;;;;-2.84;83.34;99167.72;10411947;28;20060;-63
2022/01/12 18:52:15;;;;;;;68.18;35.70;;;;;;;-2.91;83.96;99174.88;10393427;28;19919;-63
2022/01/12 18:57:14;;;;;;;57.17;34.90;;;;;;;-2.86;83.92;99175.22;10400430;28;20510;-63
2022/01/12 19:02:13;;;;;;;57.78;32.90;;;;;;;-2.82;82.83;99177.22;10411739;28;20060;-62
2022/01/12 19:07:12;;;;;;;61.92;37.55;;;;;;;-2.86;82.63;99177.75;10409434;28;20029;-62
2022/01/12 19:12:13;;;;;;;50.50;29.45;;;;;;;-2.76;82.64;99181.84;10411086;28;20039;-62
2022/01/12 19:17:12;;;;;;;44.58;26.67;;;;;;;-3.09;83.14;99125.25;10410634;28;20065;-62
2022/01/12 19:22:11;;;;;;;44.05;25.50;;;;;;;-2.78;82.58;99179.22;10408234;28;20111;-61
2022/01/12 19:27:12;;;;;;;46.25;27.40;;;;;;;-2.89;82.58;99157.22;10401948;28;20063;-61
2022/01/12 19:32:12;;;;;;;40.80;23.55;;;;;;;-2.68;82.44;99190.94;10405250;28;20102;-61
2022/01/12 19:37:11;;;;;;;47.78;29.63;;;;;;;-2.81;82.12;99196.75;10400907;28;20067;-61
2022/01/12 19:42:10;;;;;;;44.70;26.30;;;;;;;-3.09;82.12;99150.63;10409491;28;20025;-61
2022/01/12 19:47:17;;;;;;;55.22;33.60;;;;;;;-2.95;82.37;99187.22;10396304;28;20071;-61
2022/01/12 19:52:31;;;;;;;65.72;34.70;;;;;;;-2.91;82.50;99194.31;10408049;28;20079;-61
2022/01/12 19:57:40;;;;;;;64.05;34.28;;;;;;;-2.83;82.83;99192.31;10405044;28;20107;-60
2022/01/12 20:03:05;;;;;;;52.13;29.60;;;;;;;-2.75;83.53;99188.72;10407019;28;20135;-60
2022/01/12 20:08:35;;;;;;;77.18;49.13;;;;;;;-2.77;82.58;99186.06;10395263;28;20128;-60
2022/01/12 20:13:34;;;;;;;59.72;34.95;;;;;;;-2.93;82.37;99184.03;10398123;28;20119;-60
2022/01/12 20:24:19;;;;;;;61.95;33.50;;;;;;;-2.86;83.28;99202.28;10408434;28;20471;-60
2022/01/12 20:29:18;;;;;;;67.10;37.67;;;;;;;-3.11;83.25;99192.78;10397741;28;20108;-60
2022/01/12 20:34:17;;;;;;;71.38;41.22;;;;;;;-2.97;83.51;99209.06;10385088;28;20083;-60
2022/01/12 20:39:16;;;;;;;62.08;35.35;;;;;;;-2.92;83.84;99216.28;10388339;28;20067;-60
2022/01/12 20:44:15;;;;;;;;;;;;;;;-2.92;83.63;99213.75;10397751;28;20492;-60
2022/01/12 20:49:15;;;;;;;58.38;31.50;;;;;;;-3.01;83.25;99219.78;10416422;28;20149;-60
2022/01/12 20:54:15;;;;;;;59.83;31.70;;;;;;;-2.95;84.22;99208.41;10386139;28;20056;-59
2022/01/12 20:59:14;;;;;;;47.30;25.83;;;;;;;-2.87;84.23;99211.56;10389847;28;20079;-60
2022/01/12 21:04:13;;;;;;;48.55;25.48;;;;;;;-2.92;84.20;99198.50;10404501;28;20060;-60
2022/01/12 21:09:15;;;;;;;71.50;37.28;;;;;;;-2.84;84.52;99209.22;10411617;28;20136;-60
2022/01/12 21:14:16;;;;;;;74.20;40.78;;;;;;;-2.84;84.37;99216.84;10409202;28;20063;-60
2022/01/12 21:19:18;;;;;;;64.22;37.67;;;;;;;-2.83;84.80;99210.97;10410420;28;20071;-60
2022/01/12 21:24:20;;;;;;;53.85;32.13;;;;;;;-2.84;84.72;99210.91;10416185;28;20056;-60
2022/01/12 21:29:21;;;;;;;54.33;29.60;;;;;;;-2.84;84.67;99213.44;10388283;28;20068;-59
2022/01/12 21:34:29;;;;;;;46.33;27.08;;;;;;;-2.85;84.81;99210.03;10408800;28;20808;-60
2022/01/12 21:39:28;;;;;;;43.50;25.13;;;;;;;-2.86;84.63;99204.81;10416151;28;20048;-60
2022/01/12 21:44:27;;;;;;;;;;;;;;;-2.85;84.74;99211.66;10415574;28;20086;-60
2022/01/12 21:49:26;;;;;;;53.22;28.05;;;;;;;-2.90;84.60;99218.91;10415523;28;20391;-60
2022/01/12 21:54:25;;;;;;;57.08;29.85;;;;;;;-2.98;84.10;99223.44;10406883;28;20125;-60
2022/01/12 21:59:24;;;;;;;61.97;30.70;;;;;;;-3.02;84.70;99215.47;10415363;28;20056;-60
2022/01/12 22:04:23;;;;;;;70.22;34.42;;;;;;;-2.95;84.88;99226.19;10426198;28;20090;-60
2022/01/12 22:09:22;;;;;;;58.47;32.28;;;;;;;-3.07;84.67;99230.34;10414680;28;20033;-59
2022/01/12 22:14:21;;;;;;;67.22;35.72;;;;;;;-3.11;84.87;99218.19;10394030;28;20071;-60
2022/01/12 22:19:23;;;;;;;50.08;26.25;;;;;;;-3.17;84.54;99230.44;10414304;28;20463;-60
2022/01/12 22:24:22;;;;;;;51.38;26.33;;;;;;;-3.23;84.77;99233.38;10413308;28;20060;-59
2022/01/12 22:29:21;;;;;;;46.05;25.35;;;;;;;-3.26;84.87;99225.53;10414074;28;20413;-59
2022/01/12 22:34:20;;;;;;;47.25;25.48;;;;;;;-3.22;84.57;99236.81;10410454;28;20041;-59
2022/01/12 22:39:19;;;;;;;54.25;29.42;;;;;;;-3.15;84.73;99239.06;10413934;28;20043;-59
2022/01/12 22:44:18;;;;;;;48.80;26.33;;;;;;;-3.04;85.19;99225.50;10412483;28;20064;-59
2022/01/12 22:49:17;;;;;;;45.83;24.80;;;;;;;-2.97;85.29;99216.69;10413045;28;20523;-60
2022/01/12 22:54:16;;;;;;;40.45;23.00;;;;;;;-2.88;85.30;99234.28;10404508;28;20059;-60
2022/01/12 22:59:15;;;;;;;38.60;19.98;;;;;;;-2.85;85.13;99227.78;10408884;28;20060;-59
2022/01/12 23:04:17;;;;;;;32.33;17.70;;;;;;;-2.88;85.18;99225.00;10411942;28;20043;-60
2022/01/12 23:09:16;;;;;;;42.47;21.70;;;;;;;-2.85;85.34;99240.50;10406623;28;20658;-60
2022/01/12 23:14:16;;;;;;;50.30;28.02;;;;;;;-3.03;85.70;99204.44;10411117;28;20503;-59
2022/01/12 23:19:15;;;;;;;48.47;26.48;;;;;;;-2.82;84.96;99244.91;10412982;28;20052;-60
2022/01/12 23:24:14;;;;;;;41.70;23.45;;;;;;;-2.86;85.29;99242.91;10413480;28;20037;-60
2022/01/12 23:29:13;;;;;;;33.45;18.02;;;;;;;-3.00;84.92;99247.81;10411264;28;20074;-60
2022/01/12 23:54:58;;;;;;;42.83;23.17;;;;;;;-3.04;85.21;99272.88;10405761;28;20074;-60
2022/01/12 23:59:57;;;;;;;41.15;22.67;;;;;;;-3.07;85.18;99268.44;10403487;28;20485;-60
